sensor_id;sensor_type;location;lat;lon;timestamp;temperature;humidity
64484;DHT22;50862;51.642;7.964;2022-09-03T00:01:49;16.30;55.30
64484;DHT22;50862;51.642;7.964;2022-09-03T00:04:23;16.30;55.20
64484;DHT22;50862;51.642;7.964;2022-09-03T00:06:59;16.40;55.40
64484;DHT22;50862;51.642;7.964;2022-09-03T00:09:32;16.40;55.90
64484;DHT22;50862;51.642;7.964;2022-09-03T00:12:09;16.40;56.10
64484;DHT22;50862;51.642;7.964;2022-09-03T00:14:40;16.10;57.10
64484;DHT22;50862;51.642;7.964;2022-09-03T00:17:12;16.60;58.00
64484;DHT22;50862;51.642;7.964;2022-09-03T00:19:45;16.20;59.20
64484;DHT22;50862;51.642;7.964;2022-09-03T00:22:18;16.90;59.70
64484;DHT22;50862;51.642;7.964;2022-09-03T00:24:49;16.70;58.50
64484;DHT22;50862;51.642;7.964;2022-09-03T00:27:22;15.70;58.10
64484;DHT22;50862;51.642;7.964;2022-09-03T00:29:55;16.20;58.50
64484;DHT22;50862;51.642;7.964;2022-09-03T00:32:28;15.70;58.70
64484;DHT22;50862;51.642;7.964;2022-09-03T00:35:03;15.80;59.60
64484;DHT22;50862;51.642;7.964;2022-09-03T00:37:33;15.60;59.10
64484;DHT22;50862;51.642;7.964;2022-09-03T00:40:09;15.40;60.20
64484;DHT22;50862;51.642;7.964;2022-09-03T00:42:48;15.50;61.60
64484;DHT22;50862;51.642;7.964;2022-09-03T00:45:25;15.40;59.80
64484;DHT22;50862;51.642;7.964;2022-09-03T00:48:08;15.30;59.90
64484;DHT22;50862;51.642;7.964;2022-09-03T00:50:50;15.50;62.50
64484;DHT22;50862;51.642;7.964;2022-09-03T00:53:32;15.10;61.50
64484;DHT22;50862;51.642;7.964;2022-09-03T00:56:08;15.80;60.40
64484;DHT22;50862;51.642;7.964;2022-09-03T00:58:55;15.20;60.20
64484;DHT22;50862;51.642;7.964;2022-09-03T01:01:30;15.40;59.50
64484;DHT22;50862;51.642;7.964;2022-09-03T01:04:12;15.30;59.80
64484;DHT22;50862;51.642;7.964;2022-09-03T01:06:52;15.20;60.20
64484;DHT22;50862;51.642;7.964;2022-09-03T01:09:33;15.30;60.20
64484;DHT22;50862;51.642;7.964;2022-09-03T01:12:10;15.40;59.90
64484;DHT22;50862;51.642;7.964;2022-09-03T01:14:51;15.40;59.40
64484;DHT22;50862;51.642;7.964;2022-09-03T01:17:31;15.60;59.40
64484;DHT22;50862;51.642;7.964;2022-09-03T01:20:14;15.40;58.90
64484;DHT22;50862;51.642;7.964;2022-09-03T01:25:51;14.90;59.70
64484;DHT22;50862;51.642;7.964;2022-09-03T01:28:36;15.10;60.50
64484;DHT22;50862;51.642;7.964;2022-09-03T01:31:17;15.30;60.30
64484;DHT22;50862;51.642;7.964;2022-09-03T01:33:54;15.30;59.90
64484;DHT22;50862;51.642;7.964;2022-09-03T01:36:30;15.20;60.30
64484;DHT22;50862;51.642;7.964;2022-09-03T01:39:04;15.60;62.30
64484;DHT22;50862;51.642;7.964;2022-09-03T01:41:43;15.10;59.80
64484;DHT22;50862;51.642;7.964;2022-09-03T01:44:38;15.20;59.80
64484;DHT22;50862;51.642;7.964;2022-09-03T01:47:17;15.10;59.60
64484;DHT22;50862;51.642;7.964;2022-09-03T01:49:55;15.20;59.90
64484;DHT22;50862;51.642;7.964;2022-09-03T01:52:37;14.80;61.90
64484;DHT22;50862;51.642;7.964;2022-09-03T01:55:22;15.20;60.40
64484;DHT22;50862;51.642;7.964;2022-09-03T01:57:54;15.10;61.30
64484;DHT22;50862;51.642;7.964;2022-09-03T02:00:26;14.90;61.00
64484;DHT22;50862;51.642;7.964;2022-09-03T02:05:26;15.50;63.70
64484;DHT22;50862;51.642;7.964;2022-09-03T02:07:57;14.70;61.20
64484;DHT22;50862;51.642;7.964;2022-09-03T02:10:29;14.60;60.90
64484;DHT22;50862;51.642;7.964;2022-09-03T02:13:01;15.00;61.10
64484;DHT22;50862;51.642;7.964;2022-09-03T02:15:34;14.60;60.90
64484;DHT22;50862;51.642;7.964;2022-09-03T02:18:06;14.70;61.10
64484;DHT22;50862;51.642;7.964;2022-09-03T02:25:37;15.00;63.70
64484;DHT22;50862;51.642;7.964;2022-09-03T02:28:07;14.30;62.50
64484;DHT22;50862;51.642;7.964;2022-09-03T02:30:44;15.00;61.30
64484;DHT22;50862;51.642;7.964;2022-09-03T02:33:14;14.60;61.30
64484;DHT22;50862;51.642;7.964;2022-09-03T02:35:42;14.60;62.00
64484;DHT22;50862;51.642;7.964;2022-09-03T02:38:12;14.80;62.10
64484;DHT22;50862;51.642;7.964;2022-09-03T02:43:12;15.30;65.20
64484;DHT22;50862;51.642;7.964;2022-09-03T02:45:47;14.40;65.10
64484;DHT22;50862;51.642;7.964;2022-09-03T02:48:19;15.30;64.10
64484;DHT22;50862;51.642;7.964;2022-09-03T02:50:49;14.00;64.80
64484;DHT22;50862;51.642;7.964;2022-09-03T02:53:18;14.30;64.90
64484;DHT22;50862;51.642;7.964;2022-09-03T02:58:15;14.50;62.60
64484;DHT22;50862;51.642;7.964;2022-09-03T03:00:44;14.30;62.60
64484;DHT22;50862;51.642;7.964;2022-09-03T03:05:45;15.20;64.60
64484;DHT22;50862;51.642;7.964;2022-09-03T03:08:16;14.30;62.80
64484;DHT22;50862;51.642;7.964;2022-09-03T03:10:47;14.20;63.20
64484;DHT22;50862;51.642;7.964;2022-09-03T03:13:17;14.40;63.90
64484;DHT22;50862;51.642;7.964;2022-09-03T03:15:47;14.20;63.70
64484;DHT22;50862;51.642;7.964;2022-09-03T03:20:43;14.20;66.60
64484;DHT22;50862;51.642;7.964;2022-09-03T03:25:42;14.10;64.80
64484;DHT22;50862;51.642;7.964;2022-09-03T03:28:10;13.80;64.20
64484;DHT22;50862;51.642;7.964;2022-09-03T03:30:39;13.80;64.20
64484;DHT22;50862;51.642;7.964;2022-09-03T03:33:10;14.20;66.20
64484;DHT22;50862;51.642;7.964;2022-09-03T03:35:38;14.30;67.90
64484;DHT22;50862;51.642;7.964;2022-09-03T03:38:08;13.60;67.30
64484;DHT22;50862;51.642;7.964;2022-09-03T03:40:37;13.90;67.70
64484;DHT22;50862;51.642;7.964;2022-09-03T03:43:05;13.80;68.20
64484;DHT22;50862;51.642;7.964;2022-09-03T03:48:02;13.90;65.90
64484;DHT22;50862;51.642;7.964;2022-09-03T03:50:31;13.70;65.40
64484;DHT22;50862;51.642;7.964;2022-09-03T03:58:01;13.90;65.90
64484;DHT22;50862;51.642;7.964;2022-09-03T04:02:58;13.40;68.60
64484;DHT22;50862;51.642;7.964;2022-09-03T04:05:26;13.70;66.90
64484;DHT22;50862;51.642;7.964;2022-09-03T04:08:02;13.80;66.30
64484;DHT22;50862;51.642;7.964;2022-09-03T04:10:30;13.90;66.40
64484;DHT22;50862;51.642;7.964;2022-09-03T04:12:58;13.60;67.50
64484;DHT22;50862;51.642;7.964;2022-09-03T04:17:55;13.10;69.40
64484;DHT22;50862;51.642;7.964;2022-09-03T04:25:21;14.30;71.30
64484;DHT22;50862;51.642;7.964;2022-09-03T04:27:50;13.40;70.60
64484;DHT22;50862;51.642;7.964;2022-09-03T04:30:19;13.30;69.30
64484;DHT22;50862;51.642;7.964;2022-09-03T04:32:49;13.50;68.10
64484;DHT22;50862;51.642;7.964;2022-09-03T04:37:48;13.60;68.50
64484;DHT22;50862;51.642;7.964;2022-09-03T04:40:16;13.80;70.40
64484;DHT22;50862;51.642;7.964;2022-09-03T04:42:46;14.30;69.50
64484;DHT22;50862;51.642;7.964;2022-09-03T04:45:15;13.30;72.20
64484;DHT22;50862;51.642;7.964;2022-09-03T04:52:41;13.70;71.00
64484;DHT22;50862;51.642;7.964;2022-09-03T04:57:39;13.50;73.20
64484;DHT22;50862;51.642;7.964;2022-09-03T05:00:11;13.40;69.80
64484;DHT22;50862;51.642;7.964;2022-09-03T05:05:08;13.10;69.60
64484;DHT22;50862;51.642;7.964;2022-09-03T05:07:36;14.00;71.50
64484;DHT22;50862;51.642;7.964;2022-09-03T05:10:08;13.20;70.00
64484;DHT22;50862;51.642;7.964;2022-09-03T05:15:07;13.50;70.30
64484;DHT22;50862;51.642;7.964;2022-09-03T05:17:37;13.50;70.30
64484;DHT22;50862;51.642;7.964;2022-09-03T05:20:06;14.60;71.20
64484;DHT22;50862;51.642;7.964;2022-09-03T05:22:34;13.10;73.30
64484;DHT22;50862;51.642;7.964;2022-09-03T05:25:03;14.40;72.50
64484;DHT22;50862;51.642;7.964;2022-09-03T05:30:00;14.30;72.30
64484;DHT22;50862;51.642;7.964;2022-09-03T05:32:29;13.70;70.10
64484;DHT22;50862;51.642;7.964;2022-09-03T05:35:00;13.90;70.40
64484;DHT22;50862;51.642;7.964;2022-09-03T05:44:54;13.70;71.00
64484;DHT22;50862;51.642;7.964;2022-09-03T05:47:23;14.00;71.50
64484;DHT22;50862;51.642;7.964;2022-09-03T05:49:51;14.80;70.30
64484;DHT22;50862;51.642;7.964;2022-09-03T05:52:20;14.10;72.60
64484;DHT22;50862;51.642;7.964;2022-09-03T05:57:18;14.40;72.20
64484;DHT22;50862;51.642;7.964;2022-09-03T06:07:13;15.50;72.00
64484;DHT22;50862;51.642;7.964;2022-09-03T06:09:43;15.10;68.00
64484;DHT22;50862;51.642;7.964;2022-09-03T06:12:11;15.40;68.10
64484;DHT22;50862;51.642;7.964;2022-09-03T06:14:39;15.60;68.40
64484;DHT22;50862;51.642;7.964;2022-09-03T06:19:38;15.70;70.50
64484;DHT22;50862;51.642;7.964;2022-09-03T06:22:06;15.70;70.30
64484;DHT22;50862;51.642;7.964;2022-09-03T06:27:04;15.80;69.00
64484;DHT22;50862;51.642;7.964;2022-09-03T06:32:04;15.50;65.80
64484;DHT22;50862;51.642;7.964;2022-09-03T06:44:27;16.40;64.80
64484;DHT22;50862;51.642;7.964;2022-09-03T06:49:27;16.20;63.80
64484;DHT22;50862;51.642;7.964;2022-09-03T06:56:54;16.60;64.30
64484;DHT22;50862;51.642;7.964;2022-09-03T07:01:52;16.30;64.70
64484;DHT22;50862;51.642;7.964;2022-09-03T07:06:50;17.10;65.00
64484;DHT22;50862;51.642;7.964;2022-09-03T07:11:47;17.00;61.50
64484;DHT22;50862;51.642;7.964;2022-09-03T07:14:17;16.30;63.20
64484;DHT22;50862;51.642;7.964;2022-09-03T07:16:46;16.80;61.80
64484;DHT22;50862;51.642;7.964;2022-09-03T07:19:16;17.80;64.40
64484;DHT22;50862;51.642;7.964;2022-09-03T07:21:44;17.40;61.20
64484;DHT22;50862;51.642;7.964;2022-09-03T07:24:16;17.40;62.90
64484;DHT22;50862;51.642;7.964;2022-09-03T07:29:15;17.60;61.70
64484;DHT22;50862;51.642;7.964;2022-09-03T07:31:47;17.70;62.80
64484;DHT22;50862;51.642;7.964;2022-09-03T07:34:20;17.50;60.90
64484;DHT22;50862;51.642;7.964;2022-09-03T07:36:52;17.50;61.70
64484;DHT22;50862;51.642;7.964;2022-09-03T07:41:49;18.20;61.60
64484;DHT22;50862;51.642;7.964;2022-09-03T07:44:18;18.20;59.20
64484;DHT22;50862;51.642;7.964;2022-09-03T07:46:47;18.60;60.30
64484;DHT22;50862;51.642;7.964;2022-09-03T07:51:47;18.60;58.60
64484;DHT22;50862;51.642;7.964;2022-09-03T07:54:18;18.60;58.90
64484;DHT22;50862;51.642;7.964;2022-09-03T07:56:47;18.80;58.50
64484;DHT22;50862;51.642;7.964;2022-09-03T07:59:15;19.10;60.10
64484;DHT22;50862;51.642;7.964;2022-09-03T08:01:43;18.70;59.30
64484;DHT22;50862;51.642;7.964;2022-09-03T08:04:11;18.60;58.70
64484;DHT22;50862;51.642;7.964;2022-09-03T08:06:40;16.10;56.50
64484;DHT22;50862;51.642;7.964;2022-09-03T08:09:10;19.00;57.30
64484;DHT22;50862;51.642;7.964;2022-09-03T08:11:41;19.00;56.80
64484;DHT22;50862;51.642;7.964;2022-09-03T08:14:11;19.30;57.20
64484;DHT22;50862;51.642;7.964;2022-09-03T08:16:41;19.50;56.70
64484;DHT22;50862;51.642;7.964;2022-09-03T08:19:10;19.10;57.20
64484;DHT22;50862;51.642;7.964;2022-09-03T08:21:39;20.20;57.90
64484;DHT22;50862;51.642;7.964;2022-09-03T08:24:11;20.40;57.70
64484;DHT22;50862;51.642;7.964;2022-09-03T08:26:40;20.10;56.60
64484;DHT22;50862;51.642;7.964;2022-09-03T08:29:16;20.50;56.70
64484;DHT22;50862;51.642;7.964;2022-09-03T08:31:44;20.50;56.30
64484;DHT22;50862;51.642;7.964;2022-09-03T08:34:13;20.50;55.40
64484;DHT22;50862;51.642;7.964;2022-09-03T08:36:43;20.60;55.10
64484;DHT22;50862;51.642;7.964;2022-09-03T08:39:14;21.70;54.40
64484;DHT22;50862;51.642;7.964;2022-09-03T08:42:10;20.90;53.70
64484;DHT22;50862;51.642;7.964;2022-09-03T08:44:44;20.70;53.00
64484;DHT22;50862;51.642;7.964;2022-09-03T08:47:18;20.90;52.80
64484;DHT22;50862;51.642;7.964;2022-09-03T08:49:51;21.90;54.10
64484;DHT22;50862;51.642;7.964;2022-09-03T08:52:26;21.50;52.40
64484;DHT22;50862;51.642;7.964;2022-09-03T08:55:10;22.00;53.40
64484;DHT22;50862;51.642;7.964;2022-09-03T08:57:44;21.60;52.20
64484;DHT22;50862;51.642;7.964;2022-09-03T09:00:14;21.90;52.10
64484;DHT22;50862;51.642;7.964;2022-09-03T09:02:51;22.10;52.30
64484;DHT22;50862;51.642;7.964;2022-09-03T09:05:24;22.00;52.00
64484;DHT22;50862;51.642;7.964;2022-09-03T09:08:05;22.20;52.20
64484;DHT22;50862;51.642;7.964;2022-09-03T09:10:42;22.10;51.10
64484;DHT22;50862;51.642;7.964;2022-09-03T09:13:18;22.40;51.60
64484;DHT22;50862;51.642;7.964;2022-09-03T09:15:55;22.10;50.90
64484;DHT22;50862;51.642;7.964;2022-09-03T09:18:38;22.50;51.30
64484;DHT22;50862;51.642;7.964;2022-09-03T09:21:12;22.40;50.90
64484;DHT22;50862;51.642;7.964;2022-09-03T09:23:49;22.50;51.50
64484;DHT22;50862;51.642;7.964;2022-09-03T09:26:21;22.10;50.40
64484;DHT22;50862;51.642;7.964;2022-09-03T09:28:52;22.30;50.80
64484;DHT22;50862;51.642;7.964;2022-09-03T09:31:21;22.30;50.90
64484;DHT22;50862;51.642;7.964;2022-09-03T09:33:49;22.20;50.50
64484;DHT22;50862;51.642;7.964;2022-09-03T09:36:18;22.30;50.40
64484;DHT22;50862;51.642;7.964;2022-09-03T09:38:46;22.30;50.80
64484;DHT22;50862;51.642;7.964;2022-09-03T09:41:15;22.70;51.10
64484;DHT22;50862;51.642;7.964;2022-09-03T09:43:46;22.30;50.00
64484;DHT22;50862;51.642;7.964;2022-09-03T09:46:19;22.30;50.30
64484;DHT22;50862;51.642;7.964;2022-09-03T09:48:50;22.60;50.00
64484;DHT22;50862;51.642;7.964;2022-09-03T09:51:20;24.00;49.80
64484;DHT22;50862;51.642;7.964;2022-09-03T09:53:59;23.00;48.00
64484;DHT22;50862;51.642;7.964;2022-09-03T09:56:29;23.80;48.60
64484;DHT22;50862;51.642;7.964;2022-09-03T09:59:06;23.70;48.40
64484;DHT22;50862;51.642;7.964;2022-09-03T10:01:37;23.80;49.10
64484;DHT22;50862;51.642;7.964;2022-09-03T10:04:10;23.50;48.90
64484;DHT22;50862;51.642;7.964;2022-09-03T10:06:39;23.70;49.70
64484;DHT22;50862;51.642;7.964;2022-09-03T10:09:24;23.70;48.70
64484;DHT22;50862;51.642;7.964;2022-09-03T10:12:05;24.20;49.30
64484;DHT22;50862;51.642;7.964;2022-09-03T10:14:39;23.70;49.10
64484;DHT22;50862;51.642;7.964;2022-09-03T10:17:13;23.80;49.30
64484;DHT22;50862;51.642;7.964;2022-09-03T10:19:52;24.20;48.70
64484;DHT22;50862;51.642;7.964;2022-09-03T10:22:40;24.70;48.00
64484;DHT22;50862;51.642;7.964;2022-09-03T10:25:25;24.90;47.20
64484;DHT22;50862;51.642;7.964;2022-09-03T10:27:54;25.00;47.30
64484;DHT22;50862;51.642;7.964;2022-09-03T10:30:27;25.10;46.50
64484;DHT22;50862;51.642;7.964;2022-09-03T10:33:02;25.00;46.60
64484;DHT22;50862;51.642;7.964;2022-09-03T10:35:35;24.90;47.20
64484;DHT22;50862;51.642;7.964;2022-09-03T10:38:14;25.20;46.70
64484;DHT22;50862;51.642;7.964;2022-09-03T10:40:51;25.40;46.60
64484;DHT22;50862;51.642;7.964;2022-09-03T10:43:54;25.30;46.40
64484;DHT22;50862;51.642;7.964;2022-09-03T10:46:28;25.50;46.90
64484;DHT22;50862;51.642;7.964;2022-09-03T10:49:13;25.70;45.60
64484;DHT22;50862;51.642;7.964;2022-09-03T10:51:51;25.80;45.00
64484;DHT22;50862;51.642;7.964;2022-09-03T10:54:31;25.70;45.90
64484;DHT22;50862;51.642;7.964;2022-09-03T10:57:08;25.70;46.00
64484;DHT22;50862;51.642;7.964;2022-09-03T10:59:52;25.80;46.20
64484;DHT22;50862;51.642;7.964;2022-09-03T11:05:33;26.00;44.90
64484;DHT22;50862;51.642;7.964;2022-09-03T11:08:09;25.90;44.20
64484;DHT22;50862;51.642;7.964;2022-09-03T11:10:42;25.70;45.30
64484;DHT22;50862;51.642;7.964;2022-09-03T11:13:15;25.80;45.40
64484;DHT22;50862;51.642;7.964;2022-09-03T11:15:49;25.90;44.60
64484;DHT22;50862;51.642;7.964;2022-09-03T11:18:23;26.10;45.20
64484;DHT22;50862;51.642;7.964;2022-09-03T11:20:55;26.30;44.20
64484;DHT22;50862;51.642;7.964;2022-09-03T11:23:27;26.30;44.10
64484;DHT22;50862;51.642;7.964;2022-09-03T11:26:00;26.00;44.30
64484;DHT22;50862;51.642;7.964;2022-09-03T11:28:37;25.80;45.30
64484;DHT22;50862;51.642;7.964;2022-09-03T11:31:17;25.50;45.40
64484;DHT22;50862;51.642;7.964;2022-09-03T11:33:52;25.50;45.40
64484;DHT22;50862;51.642;7.964;2022-09-03T11:36:29;25.40;45.20
64484;DHT22;50862;51.642;7.964;2022-09-03T11:38:58;25.40;45.20
64484;DHT22;50862;51.642;7.964;2022-09-03T11:41:29;25.50;45.40
64484;DHT22;50862;51.642;7.964;2022-09-03T11:44:11;25.70;45.00
64484;DHT22;50862;51.642;7.964;2022-09-03T11:46:53;25.80;44.30
64484;DHT22;50862;51.642;7.964;2022-09-03T11:49:29;25.80;44.50
64484;DHT22;50862;51.642;7.964;2022-09-03T11:52:00;25.80;44.20
64484;DHT22;50862;51.642;7.964;2022-09-03T11:54:31;26.00;44.80
64484;DHT22;50862;51.642;7.964;2022-09-03T11:57:08;26.20;46.20
64484;DHT22;50862;51.642;7.964;2022-09-03T11:59:39;26.40;44.60
64484;DHT22;50862;51.642;7.964;2022-09-03T12:02:19;26.80;44.90
64484;DHT22;50862;51.642;7.964;2022-09-03T12:05:06;26.90;45.10
64484;DHT22;50862;51.642;7.964;2022-09-03T12:07:47;26.90;44.10
64484;DHT22;50862;51.642;7.964;2022-09-03T12:10:29;26.70;45.40
64484;DHT22;50862;51.642;7.964;2022-09-03T12:13:09;26.60;45.20
64484;DHT22;50862;51.642;7.964;2022-09-03T12:15:53;26.50;45.90
64484;DHT22;50862;51.642;7.964;2022-09-03T12:18:28;26.90;45.90
64484;DHT22;50862;51.642;7.964;2022-09-03T12:21:03;27.30;45.10
64484;DHT22;50862;51.642;7.964;2022-09-03T12:23:34;27.00;44.70
64484;DHT22;50862;51.642;7.964;2022-09-03T12:26:10;27.00;45.90
64484;DHT22;50862;51.642;7.964;2022-09-03T12:28:41;26.90;46.00
64484;DHT22;50862;51.642;7.964;2022-09-03T12:31:16;26.80;46.50
64484;DHT22;50862;51.642;7.964;2022-09-03T12:33:49;26.50;46.10
64484;DHT22;50862;51.642;7.964;2022-09-03T12:36:21;26.20;46.10
64484;DHT22;50862;51.642;7.964;2022-09-03T12:38:50;26.00;48.40
64484;DHT22;50862;51.642;7.964;2022-09-03T12:41:38;25.90;47.70
64484;DHT22;50862;51.642;7.964;2022-09-03T12:44:18;25.70;47.40
64484;DHT22;50862;51.642;7.964;2022-09-03T12:46:59;25.70;47.80
64484;DHT22;50862;51.642;7.964;2022-09-03T12:49:49;25.80;47.60
64484;DHT22;50862;51.642;7.964;2022-09-03T12:52:22;25.80;47.70
64484;DHT22;50862;51.642;7.964;2022-09-03T12:54:54;25.60;47.20
64484;DHT22;50862;51.642;7.964;2022-09-03T12:57:27;25.70;48.60
64484;DHT22;50862;51.642;7.964;2022-09-03T13:00:02;25.80;48.00
64484;DHT22;50862;51.642;7.964;2022-09-03T13:02:40;25.90;48.40
64484;DHT22;50862;51.642;7.964;2022-09-03T13:05:16;26.40;47.30
64484;DHT22;50862;51.642;7.964;2022-09-03T13:07:49;26.90;46.20
64484;DHT22;50862;51.642;7.964;2022-09-03T13:10:25;27.00;45.80
64484;DHT22;50862;51.642;7.964;2022-09-03T13:12:58;26.90;46.10
64484;DHT22;50862;51.642;7.964;2022-09-03T13:15:28;26.70;47.00
64484;DHT22;50862;51.642;7.964;2022-09-03T13:18:16;26.40;46.50
64484;DHT22;50862;51.642;7.964;2022-09-03T13:21:02;26.30;47.90
64484;DHT22;50862;51.642;7.964;2022-09-03T13:23:43;26.20;47.90
64484;DHT22;50862;51.642;7.964;2022-09-03T13:26:23;26.20;47.30
64484;DHT22;50862;51.642;7.964;2022-09-03T13:29:18;26.20;48.10
64484;DHT22;50862;51.642;7.964;2022-09-03T13:31:53;26.10;47.00
64484;DHT22;50862;51.642;7.964;2022-09-03T13:34:26;26.10;47.70
64484;DHT22;50862;51.642;7.964;2022-09-03T13:37:07;26.20;48.10
64484;DHT22;50862;51.642;7.964;2022-09-03T13:39:45;26.10;47.10
64484;DHT22;50862;51.642;7.964;2022-09-03T13:42:23;26.00;48.00
64484;DHT22;50862;51.642;7.964;2022-09-03T13:44:56;26.10;48.00
64484;DHT22;50862;51.642;7.964;2022-09-03T13:47:30;26.20;48.10
64484;DHT22;50862;51.642;7.964;2022-09-03T13:50:03;26.50;47.90
64484;DHT22;50862;51.642;7.964;2022-09-03T13:52:52;26.80;46.80
64484;DHT22;50862;51.642;7.964;2022-09-03T13:55:32;26.80;45.80
64484;DHT22;50862;51.642;7.964;2022-09-03T13:58:06;26.70;46.60
64484;DHT22;50862;51.642;7.964;2022-09-03T14:00:42;26.50;47.30
64484;DHT22;50862;51.642;7.964;2022-09-03T14:03:24;26.40;48.10
64484;DHT22;50862;51.642;7.964;2022-09-03T14:06:06;26.40;47.70
64484;DHT22;50862;51.642;7.964;2022-09-03T14:08:44;26.40;48.70
64484;DHT22;50862;51.642;7.964;2022-09-03T14:11:27;26.30;48.00
64484;DHT22;50862;51.642;7.964;2022-09-03T14:14:10;26.00;48.50
64484;DHT22;50862;51.642;7.964;2022-09-03T14:16:45;25.90;49.10
64484;DHT22;50862;51.642;7.964;2022-09-03T14:19:21;26.00;48.50
64484;DHT22;50862;51.642;7.964;2022-09-03T14:21:53;26.20;48.70
64484;DHT22;50862;51.642;7.964;2022-09-03T14:24:26;26.50;48.80
64484;DHT22;50862;51.642;7.964;2022-09-03T14:27:00;26.80;47.50
64484;DHT22;50862;51.642;7.964;2022-09-03T14:29:30;26.80;47.60
64484;DHT22;50862;51.642;7.964;2022-09-03T14:32:33;26.70;47.70
64484;DHT22;50862;51.642;7.964;2022-09-03T14:35:19;26.40;48.20
64484;DHT22;50862;51.642;7.964;2022-09-03T14:38:21;26.20;47.90
64484;DHT22;50862;51.642;7.964;2022-09-03T14:41:04;26.30;48.40
64484;DHT22;50862;51.642;7.964;2022-09-03T14:43:52;26.10;48.30
64484;DHT22;50862;51.642;7.964;2022-09-03T14:46:36;26.00;48.40
64484;DHT22;50862;51.642;7.964;2022-09-03T14:49:21;26.00;49.10
64484;DHT22;50862;51.642;7.964;2022-09-03T14:52:06;26.10;48.70
64484;DHT22;50862;51.642;7.964;2022-09-03T14:57:56;25.90;48.50
64484;DHT22;50862;51.642;7.964;2022-09-03T15:00:33;25.80;47.80
64484;DHT22;50862;51.642;7.964;2022-09-03T15:03:35;25.60;48.20
64484;DHT22;50862;51.642;7.964;2022-09-03T15:06:16;25.50;48.00
64484;DHT22;50862;51.642;7.964;2022-09-03T15:09:14;25.40;48.20
64484;DHT22;50862;51.642;7.964;2022-09-03T15:11:48;25.30;48.60
64484;DHT22;50862;51.642;7.964;2022-09-03T15:14:25;25.30;48.90
64484;DHT22;50862;51.642;7.964;2022-09-03T15:16:59;25.30;49.00
64484;DHT22;50862;51.642;7.964;2022-09-03T15:19:51;25.20;48.10
64484;DHT22;50862;51.642;7.964;2022-09-03T15:22:38;25.10;48.30
64484;DHT22;50862;51.642;7.964;2022-09-03T15:25:21;25.00;48.20
64484;DHT22;50862;51.642;7.964;2022-09-03T15:28:09;25.00;48.70
64484;DHT22;50862;51.642;7.964;2022-09-03T15:30:44;25.10;48.20
64484;DHT22;50862;51.642;7.964;2022-09-03T15:33:22;25.10;48.30
64484;DHT22;50862;51.642;7.964;2022-09-03T15:36:05;25.20;48.70
64484;DHT22;50862;51.642;7.964;2022-09-03T15:38:43;25.20;48.50
64484;DHT22;50862;51.642;7.964;2022-09-03T15:41:32;25.10;47.60
64484;DHT22;50862;51.642;7.964;2022-09-03T15:44:07;25.10;47.90
64484;DHT22;50862;51.642;7.964;2022-09-03T15:46:50;25.10;49.30
64484;DHT22;50862;51.642;7.964;2022-09-03T15:49:28;25.10;48.30
64484;DHT22;50862;51.642;7.964;2022-09-03T15:52:05;25.10;48.50
64484;DHT22;50862;51.642;7.964;2022-09-03T15:54:41;25.00;48.50
64484;DHT22;50862;51.642;7.964;2022-09-03T15:57:12;25.00;48.60
64484;DHT22;50862;51.642;7.964;2022-09-03T15:59:50;25.10;49.10
64484;DHT22;50862;51.642;7.964;2022-09-03T16:02:23;25.10;49.20
64484;DHT22;50862;51.642;7.964;2022-09-03T16:05:06;25.10;48.60
64484;DHT22;50862;51.642;7.964;2022-09-03T16:10:41;25.00;48.00
64484;DHT22;50862;51.642;7.964;2022-09-03T16:13:28;24.80;48.00
64484;DHT22;50862;51.642;7.964;2022-09-03T16:16:01;24.80;48.60
64484;DHT22;50862;51.642;7.964;2022-09-03T16:18:32;24.70;47.70
64484;DHT22;50862;51.642;7.964;2022-09-03T16:21:06;24.60;48.50
64484;DHT22;50862;51.642;7.964;2022-09-03T16:23:40;25.70;49.50
64484;DHT22;50862;51.642;7.964;2022-09-03T16:26:17;24.30;49.10
64484;DHT22;50862;51.642;7.964;2022-09-03T16:28:49;24.30;49.00
64484;DHT22;50862;51.642;7.964;2022-09-03T16:31:28;24.30;49.00
64484;DHT22;50862;51.642;7.964;2022-09-03T16:34:06;24.30;49.10
64484;DHT22;50862;51.642;7.964;2022-09-03T16:36:49;24.30;49.10
64484;DHT22;50862;51.642;7.964;2022-09-03T16:39:26;24.10;49.20
64484;DHT22;50862;51.642;7.964;2022-09-03T16:42:03;24.10;49.30
64484;DHT22;50862;51.642;7.964;2022-09-03T16:44:38;24.10;49.30
64484;DHT22;50862;51.642;7.964;2022-09-03T16:47:20;24.10;49.20
64484;DHT22;50862;51.642;7.964;2022-09-03T16:49:58;24.10;50.20
64484;DHT22;50862;51.642;7.964;2022-09-03T16:52:39;23.90;50.10
64484;DHT22;50862;51.642;7.964;2022-09-03T16:55:17;24.00;49.70
64484;DHT22;50862;51.642;7.964;2022-09-03T16:57:57;24.00;50.30
64484;DHT22;50862;51.642;7.964;2022-09-03T17:00:37;23.90;50.40
64484;DHT22;50862;51.642;7.964;2022-09-03T17:03:30;23.80;50.40
64484;DHT22;50862;51.642;7.964;2022-09-03T17:06:26;23.80;50.30
64484;DHT22;50862;51.642;7.964;2022-09-03T17:09:03;23.70;50.70
64484;DHT22;50862;51.642;7.964;2022-09-03T17:11:45;23.60;50.40
64484;DHT22;50862;51.642;7.964;2022-09-03T17:17:19;23.60;51.00
64484;DHT22;50862;51.642;7.964;2022-09-03T17:19:53;24.90;51.90
64484;DHT22;50862;51.642;7.964;2022-09-03T17:22:34;23.50;49.80
64484;DHT22;50862;51.642;7.964;2022-09-03T17:25:18;23.50;50.20
64484;DHT22;50862;51.642;7.964;2022-09-03T17:27:51;23.50;50.20
64484;DHT22;50862;51.642;7.964;2022-09-03T17:30:37;23.50;50.60
64484;DHT22;50862;51.642;7.964;2022-09-03T17:33:41;23.50;50.30
64484;DHT22;50862;51.642;7.964;2022-09-03T17:36:14;23.60;50.40
64484;DHT22;50862;51.642;7.964;2022-09-03T17:39:10;23.60;49.80
64484;DHT22;50862;51.642;7.964;2022-09-03T17:41:49;23.50;49.90
64484;DHT22;50862;51.642;7.964;2022-09-03T17:44:43;23.40;50.20
64484;DHT22;50862;51.642;7.964;2022-09-03T17:47:54;23.30;50.70
64484;DHT22;50862;51.642;7.964;2022-09-03T17:50:25;23.00;50.30
64484;DHT22;50862;51.642;7.964;2022-09-03T17:52:57;23.00;50.90
64484;DHT22;50862;51.642;7.964;2022-09-03T17:55:30;22.90;51.30
64484;DHT22;50862;51.642;7.964;2022-09-03T17:58:10;22.80;51.20
64484;DHT22;50862;51.642;7.964;2022-09-03T18:00:44;22.80;51.00
64484;DHT22;50862;51.642;7.964;2022-09-03T18:03:21;22.60;51.20
64484;DHT22;50862;51.642;7.964;2022-09-03T18:05:55;22.50;51.10
64484;DHT22;50862;51.642;7.964;2022-09-03T18:08:32;22.60;51.80
64484;DHT22;50862;51.642;7.964;2022-09-03T18:11:08;22.50;51.70
64484;DHT22;50862;51.642;7.964;2022-09-03T18:13:52;22.40;52.30
64484;DHT22;50862;51.642;7.964;2022-09-03T18:16:26;22.40;52.60
64484;DHT22;50862;51.642;7.964;2022-09-03T18:19:00;22.20;52.60
64484;DHT22;50862;51.642;7.964;2022-09-03T18:21:33;22.20;53.20
64484;DHT22;50862;51.642;7.964;2022-09-03T18:24:28;22.10;53.20
64484;DHT22;50862;51.642;7.964;2022-09-03T18:27:20;22.00;54.00
64484;DHT22;50862;51.642;7.964;2022-09-03T18:30:10;21.90;53.80